Time;durP1;ratioP1;P1;durP2;ratioP2;P2;SDS_P1;SDS_P2;PMS_P1;PMS_P2;Temp;Humidity;BMP_temperature;BMP_pressure;BME280_temperature;BME280_humidity;BME280_pressure;Samples;Min_cycle;Max_cycle;Signal;HPM_P1;HPM_P2
2022/10/31 00:00:59;;;;;;;25.80;13.27;;;;;;;16.85;100.00;101674.25;5070396;28;20044;-70
2022/10/31 00:03:26;;;;;;;28.45;12.98;;;;;;;16.86;100.00;101678.63;5082620;28;20889;-71
2022/10/31 00:05:53;;;;;;;24.13;11.43;;;;;;;16.87;100.00;101667.03;5085614;28;20059;-70
2022/10/31 00:08:19;;;;;;;24.15;12.27;;;;;;;16.77;100.00;101676.31;5083191;28;20052;-72
2022/10/31 00:10:46;;;;;;;29.58;12.73;;;;;;;16.77;100.00;101673.53;5074436;28;20052;-74
2022/10/31 00:13:13;;;;;;;30.60;12.30;;;;;;;16.80;100.00;101672.69;5072399;28;20063;-71
2022/10/31 00:15:41;;;;;;;29.55;12.95;;;;;;;16.86;100.00;101664.63;5072789;28;20048;-71
2022/10/31 00:18:08;;;;;;;24.55;11.88;;;;;;;16.88;100.00;101681.78;5074008;28;20059;-73
2022/10/31 00:20:35;;;;;;;28.30;12.68;;;;;;;16.86;100.00;101673.81;5079953;28;20129;-70
2022/10/31 00:23:03;;;;;;;25.50;11.93;;;;;;;16.85;100.00;101663.06;5079122;28;20530;-71
2022/10/31 00:25:34;;;;;;;28.95;11.70;;;;;;;16.82;100.00;101667.50;5081668;28;20047;-72
2022/10/31 00:28:00;;;;;;;26.75;12.57;;;;;;;16.81;100.00;101665.88;5086905;28;20061;-73
2022/10/31 00:30:27;;;;;;;25.13;11.48;;;;;;;16.79;100.00;101667.53;5075830;28;20057;-72
2022/10/31 00:32:57;;;;;;;26.30;11.05;;;;;;;16.74;100.00;101673.56;5077862;28;20048;-70
2022/10/31 00:35:25;;;;;;;28.42;12.68;;;;;;;16.69;100.00;101657.25;5076576;28;20835;-72
2022/10/31 00:37:52;;;;;;;30.70;12.70;;;;;;;16.67;100.00;101657.66;5081782;28;20050;-72
2022/10/31 00:40:19;;;;;;;28.30;11.73;;;;;;;16.50;100.00;101657.88;5073747;28;20055;-72
2022/10/31 00:42:45;;;;;;;24.77;11.88;;;;;;;16.41;100.00;101661.13;5080985;28;20528;-73
2022/10/31 00:45:12;;;;;;;30.85;13.05;;;;;;;16.40;100.00;101656.72;5079139;28;20812;-70
2022/10/31 00:47:38;;;;;;;24.00;11.00;;;;;;;16.31;100.00;101669.59;5076342;28;20043;-70
2022/10/31 00:50:06;;;;;;;27.17;12.30;;;;;;;16.25;100.00;101663.66;5070083;28;20051;-71
2022/10/31 00:52:33;;;;;;;27.23;12.05;;;;;;;16.26;100.00;101670.06;5082231;28;20051;-71
2022/10/31 00:54:59;;;;;;;26.23;11.57;;;;;;;16.21;100.00;101674.09;5078853;28;20044;-74
2022/10/31 00:57:26;;;;;;;31.42;11.90;;;;;;;16.20;100.00;101677.28;5079412;28;20055;-73
2022/10/31 00:59:52;;;;;;;30.05;11.57;;;;;;;16.22;100.00;101678.44;5079906;28;20845;-73
2022/10/31 01:02:19;;;;;;;25.15;11.55;;;;;;;16.24;100.00;101683.63;5082201;28;20058;-71
2022/10/31 01:04:45;;;;;;;24.15;11.38;;;;;;;16.26;100.00;101686.81;5073658;28;20059;-72
2022/10/31 01:07:13;;;;;;;26.42;12.07;;;;;;;16.27;100.00;101680.78;5068442;28;20043;-72
2022/10/31 01:09:40;;;;;;;30.48;11.63;;;;;;;16.29;100.00;101683.97;5074097;28;20039;-71
2022/10/31 01:12:07;;;;;;;25.55;11.98;;;;;;;16.33;100.00;101681.94;5084964;28;20067;-73
2022/10/31 01:14:33;;;;;;;25.65;10.68;;;;;;;16.25;100.00;101677.63;5069518;28;20051;-72
2022/10/31 01:17:00;;;;;;;30.50;12.27;;;;;;;16.19;100.00;101675.69;5068301;28;20044;-73
2022/10/31 01:19:26;;;;;;;26.08;11.77;;;;;;;16.19;100.00;101667.31;5080081;28;20858;-73
2022/10/31 01:21:54;;;;;;;22.95;11.68;;;;;;;16.28;100.00;101676.00;5074189;28;20092;-73
2022/10/31 01:24:21;;;;;;;26.17;10.93;;;;;;;16.25;100.00;101674.84;5082194;28;20044;-72
2022/10/31 01:26:47;;;;;;;32.17;11.70;;;;;;;16.27;100.00;101668.84;5079708;28;20101;-72
2022/10/31 01:29:14;;;;;;;24.17;11.15;;;;;;;16.29;100.00;101666.41;5078936;28;20048;-73
2022/10/31 01:31:40;;;;;;;32.45;11.90;;;;;;;16.33;100.00;101678.38;5074305;28;20051;-73
2022/10/31 01:34:12;;;;;;;26.90;11.48;;;;;;;16.27;100.00;101672.41;5074529;28;20059;-73
2022/10/31 01:36:39;;;;;;;28.40;11.88;;;;;;;16.23;100.00;101676.47;5079878;28;20043;-72
2022/10/31 01:39:13;;;;;;;28.52;10.57;;;;;;;16.21;100.00;101673.28;5072673;28;20052;-72
2022/10/31 01:41:43;;;;;;;24.25;11.68;;;;;;;16.19;100.00;101670.09;5082950;28;20043;-72
2022/10/31 01:44:15;;;;;;;28.60;11.85;;;;;;;16.16;100.00;101685.69;5079360;28;20926;-72
2022/10/31 01:46:44;;;;;;;26.05;10.82;;;;;;;16.15;100.00;101686.09;5084329;28;20047;-72
2022/10/31 01:49:43;;;;;;;28.05;12.10;;;;;;;16.19;100.00;101689.63;5069329;28;20091;-72
2022/10/31 01:52:25;;;;;;;28.42;12.98;;;;;;;16.25;100.00;101696.38;5081088;28;20087;-72
2022/10/31 01:54:58;;;;;;;23.65;11.00;;;;;;;16.32;100.00;101683.16;5074729;28;20859;-73
2022/10/31 01:57:26;;;;;;;32.97;12.38;;;;;;;16.37;100.00;101674.31;5083206;28;20043;-71
2022/10/31 01:59:57;;;;;;;27.45;11.23;;;;;;;16.37;100.00;101681.91;5079143;28;20044;-72
2022/10/31 02:02:25;;;;;;;26.92;11.90;;;;;;;16.36;100.00;101683.91;5072189;28;20597;-70
2022/10/31 02:04:53;;;;;;;24.77;10.25;;;;;;;16.37;100.00;101682.69;5084048;28;20047;-72
2022/10/31 02:07:39;;;;;;;22.25;10.60;;;;;;;16.36;100.00;101681.13;5079401;28;20044;-73
2022/10/31 02:10:05;;;;;;;23.98;10.65;;;;;;;16.40;100.00;101681.09;5073861;28;20767;-73
2022/10/31 02:12:35;;;;;;;27.40;11.18;;;;;;;16.42;100.00;101678.66;5068836;28;20449;-72
2022/10/31 02:15:03;;;;;;;32.75;13.98;;;;;;;16.40;100.00;101658.75;5081257;28;20051;-73
2022/10/31 02:17:30;;;;;;;25.85;10.90;;;;;;;16.39;100.00;101657.13;5077161;28;20047;-73
2022/10/31 02:20:13;;;;;;;26.88;11.75;;;;;;;16.34;100.00;101654.81;5078448;28;20047;-73
2022/10/31 02:23:09;;;;;;;27.77;10.63;;;;;;;16.33;100.00;101647.66;5080867;28;20086;-70
2022/10/31 02:25:44;;;;;;;22.95;10.30;;;;;;;16.33;100.00;101648.41;5081740;28;20050;-73
2022/10/31 02:28:13;;;;;;;25.30;10.48;;;;;;;16.33;100.00;101642.06;5081747;28;20070;-73
2022/10/31 02:31:05;;;;;;;22.20;10.40;;;;;;;16.31;100.00;101645.25;5079302;28;20044;-71
2022/10/31 02:33:41;;;;;;;21.88;10.25;;;;;;;16.31;100.00;101650.03;5083440;28;20931;-71
2022/10/31 02:36:14;;;;;;;27.30;11.65;;;;;;;16.26;100.00;101654.06;5083566;28;20059;-74
2022/10/31 02:39:06;;;;;;;26.70;11.43;;;;;;;16.21;100.00;101659.31;5075618;28;20055;-74
2022/10/31 02:41:46;;;;;;;28.38;11.45;;;;;;;16.18;100.00;101662.94;5076537;28;20181;-73
2022/10/31 02:44:28;;;;;;;27.38;12.05;;;;;;;16.13;100.00;101655.00;5082859;28;20051;-72
2022/10/31 02:46:58;;;;;;;21.65;10.43;;;;;;;16.10;100.00;101664.22;5078154;28;20050;-73
2022/10/31 02:49:47;;;;;;;24.95;12.98;;;;;;;16.03;100.00;101664.28;5082110;28;20051;-72
2022/10/31 02:52:23;;;;;;;26.75;11.60;;;;;;;15.83;100.00;101660.44;5053806;28;20121;-73
2022/10/31 02:54:49;;;;;;;;;;;;;;;15.70;100.00;101670.50;5085552;28;20039;-70
2022/10/31 02:57:22;;;;;;;27.58;13.10;;;;;;;15.67;100.00;101668.53;5101836;28;20411;-73
2022/10/31 02:59:53;;;;;;;22.10;10.90;;;;;;;15.69;100.00;101658.53;5099229;28;20456;-73
2022/10/31 03:02:42;;;;;;;27.63;12.27;;;;;;;15.71;100.00;101661.72;5095218;28;20047;-73
2022/10/31 03:05:19;;;;;;;28.77;11.80;;;;;;;15.70;100.00;101659.34;5097856;28;20047;-72
2022/10/31 03:07:59;;;;;;;29.20;12.85;;;;;;;15.65;100.00;101657.78;5092610;28;20093;-72
2022/10/31 03:10:36;;;;;;;22.45;10.80;;;;;;;15.61;100.00;101661.78;5101257;28;20051;-72
2022/10/31 03:13:31;;;;;;;23.45;11.15;;;;;;;15.57;100.00;101661.81;5105094;28;20048;-72
2022/10/31 03:16:13;;;;;;;24.42;12.07;;;;;;;15.45;100.00;101665.88;5074912;28;20051;-71
2022/10/31 03:19:14;;;;;;;25.73;11.50;;;;;;;15.32;100.00;101670.31;5095529;28;20296;-72
2022/10/31 03:21:43;;;;;;;28.88;11.30;;;;;;;15.26;100.00;101679.50;5083336;28;20047;-72
2022/10/31 03:24:13;;;;;;;27.83;12.07;;;;;;;15.26;100.00;101671.91;5103521;28;20458;-73
2022/10/31 03:26:50;;;;;;;24.77;11.65;;;;;;;15.26;100.00;101674.72;5106280;28;20062;-72
2022/10/31 03:29:30;;;;;;;29.25;13.00;;;;;;;15.26;100.00;101673.94;5110362;28;20051;-73
2022/10/31 03:32:10;;;;;;;26.98;13.57;;;;;;;15.22;100.00;101667.56;5094642;28;20077;-72
2022/10/31 03:34:41;;;;;;;29.73;12.13;;;;;;;15.19;100.00;101666.38;5094599;28;20051;-70
2022/10/31 03:37:13;;;;;;;28.75;13.15;;;;;;;15.16;100.00;101658.06;5097092;28;20054;-72
2022/10/31 03:39:42;;;;;;;25.98;11.48;;;;;;;15.16;100.00;101661.63;5095140;28;20414;-72
2022/10/31 03:42:13;;;;;;;26.52;12.10;;;;;;;15.14;100.00;101668.81;5105140;28;20117;-72
2022/10/31 03:44:50;;;;;;;23.35;11.60;;;;;;;15.13;100.00;101668.00;5104171;28;20047;-71
2022/10/31 03:47:17;;;;;;;27.35;11.63;;;;;;;15.10;100.00;101662.47;5107337;28;20051;-72
2022/10/31 03:49:43;;;;;;;25.85;11.65;;;;;;;15.07;100.00;101660.47;5096073;28;20491;-72
2022/10/31 03:52:26;;;;;;;25.00;11.32;;;;;;;15.01;100.00;101662.09;5102147;28;20047;-72
2022/10/31 03:55:02;;;;;;;26.75;11.02;;;;;;;14.96;100.00;101670.88;5104791;28;20105;-72
2022/10/31 03:57:54;;;;;;;25.58;11.68;;;;;;;14.95;100.00;101669.31;5097765;28;20067;-72
2022/10/31 04:00:21;;;;;;;27.35;10.93;;;;;;;14.89;100.00;101665.34;5102672;28;20048;-72
2022/10/31 04:02:54;;;;;;;22.67;11.65;;;;;;;14.88;100.00;101675.69;5107390;28;20055;-73
2022/10/31 04:05:24;;;;;;;22.75;11.13;;;;;;;14.85;100.00;101670.91;5104864;28;20052;-72
2022/10/31 04:07:57;;;;;;;24.50;10.65;;;;;;;14.81;100.00;101666.53;5098872;28;20058;-72
2022/10/31 04:10:26;;;;;;;25.45;11.60;;;;;;;14.76;100.00;101665.00;5104672;28;20055;-72
2022/10/31 04:13:07;;;;;;;27.52;12.13;;;;;;;14.72;100.00;101663.41;5106256;28;20040;-71
2022/10/31 04:15:36;;;;;;;29.25;11.98;;;;;;;14.70;100.00;101679.72;5105493;28;20581;-72
2022/10/31 04:18:05;;;;;;;25.48;11.02;;;;;;;14.67;100.00;101678.53;5106838;28;20051;-72
2022/10/31 04:20:37;;;;;;;30.05;12.88;;;;;;;14.64;100.00;101672.97;5106218;28;20044;-72
2022/10/31 04:23:06;;;;;;;23.75;12.35;;;;;;;14.60;100.00;101678.56;5094749;28;20086;-72
2022/10/31 04:25:37;;;;;;;25.38;12.25;;;;;;;14.56;100.00;101669.41;5102253;27;20468;-72
2022/10/31 04:28:04;;;;;;;27.65;11.52;;;;;;;14.55;100.00;101669.81;5101792;28;20052;-70
2022/10/31 04:30:30;;;;;;;26.85;10.93;;;;;;;14.53;100.00;101667.44;5103340;28;20040;-72
2022/10/31 04:32:57;;;;;;;22.35;11.45;;;;;;;14.53;100.00;101659.06;5107262;28;20058;-72
2022/10/31 04:35:24;;;;;;;23.95;10.65;;;;;;;14.53;100.00;101664.66;5095795;28;20082;-71
2022/10/31 04:37:50;;;;;;;26.30;10.85;;;;;;;14.47;100.00;101657.88;5100547;28;20051;-70
2022/10/31 04:40:17;;;;;;;28.05;11.30;;;;;;;14.47;100.00;101663.47;5098687;28;20500;-73
2022/10/31 04:42:43;;;;;;;27.15;11.57;;;;;;;14.47;100.00;101657.88;5107670;28;20074;-72
2022/10/31 04:45:10;;;;;;;24.33;10.98;;;;;;;14.48;100.00;101655.91;5108723;28;20427;-72
2022/10/31 04:47:42;;;;;;;26.83;11.02;;;;;;;14.47;100.00;101665.44;5099799;28;20047;-72
2022/10/31 04:50:09;;;;;;;27.70;10.38;;;;;;;14.41;100.00;101658.72;5106415;28;20054;-71
2022/10/31 04:52:40;;;;;;;26.23;11.52;;;;;;;14.35;100.00;101652.72;5109536;28;20070;-72
2022/10/31 04:55:07;;;;;;;28.48;12.02;;;;;;;14.38;100.00;101657.50;5107425;28;20051;-72
2022/10/31 04:57:43;;;;;;;29.52;12.32;;;;;;;14.38;100.00;101656.72;5102967;28;20530;-72
2022/10/31 05:00:12;;;;;;;27.35;11.70;;;;;;;14.37;100.00;101653.13;5099802;28;20055;-71
2022/10/31 05:02:52;;;;;;;21.58;10.77;;;;;;;14.39;100.00;101638.81;5097773;28;20040;-69
2022/10/31 05:05:21;;;;;;;23.75;11.15;;;;;;;14.29;100.00;101632.09;5104202;28;20749;-70
2022/10/31 05:07:49;;;;;;;25.77;11.38;;;;;;;14.32;100.00;101642.41;5101841;28;20454;-71
2022/10/31 05:10:21;;;;;;;25.13;11.48;;;;;;;14.31;100.00;101640.81;5104520;28;20388;-70
2022/10/31 05:12:49;;;;;;;26.95;12.75;;;;;;;14.30;100.00;101635.63;5097029;28;20098;-70
2022/10/31 05:15:17;;;;;;;25.73;11.35;;;;;;;14.26;100.00;101644.00;5107834;28;20059;-71
2022/10/31 05:17:44;;;;;;;26.30;10.85;;;;;;;14.25;100.00;101641.63;5105080;28;20051;-72
2022/10/31 05:20:12;;;;;;;29.30;12.40;;;;;;;14.25;100.00;101638.84;5102959;28;20393;-72
2022/10/31 05:22:46;;;;;;;27.38;11.45;;;;;;;14.23;100.00;101638.44;5091409;28;20055;-73
2022/10/31 05:25:13;;;;;;;30.10;11.98;;;;;;;14.18;100.00;101639.59;5096100;28;20142;-71
2022/10/31 05:27:41;;;;;;;24.70;11.77;;;;;;;14.21;100.00;101641.59;5105706;28;20499;-73
2022/10/31 05:30:09;;;;;;;24.23;11.05;;;;;;;14.19;100.00;101638.44;5102395;28;20067;-71
2022/10/31 05:32:45;;;;;;;24.58;11.85;;;;;;;14.19;100.00;101632.84;5106716;27;20055;-72
2022/10/31 05:35:26;;;;;;;27.27;12.70;;;;;;;14.17;100.00;101640.03;5105528;28;20051;-71
2022/10/31 05:37:52;;;;;;;32.65;12.65;;;;;;;14.12;100.00;101627.31;5095309;28;20100;-72
2022/10/31 05:40:20;;;;;;;26.17;11.30;;;;;;;14.13;100.00;101623.31;5100539;28;20774;-70
2022/10/31 05:42:51;;;;;;;22.88;11.32;;;;;;;14.09;100.00;101624.50;5103065;28;20054;-72
2022/10/31 05:45:18;;;;;;;28.27;12.43;;;;;;;14.06;100.00;101626.13;5102623;28;20052;-72
2022/10/31 05:47:59;;;;;;;26.27;13.23;;;;;;;14.02;100.00;101621.75;5106175;28;20043;-71
2022/10/31 05:50:29;;;;;;;28.50;12.10;;;;;;;14.02;100.00;101622.53;5107113;28;20104;-70
2022/10/31 05:53:01;;;;;;;31.30;12.60;;;;;;;13.99;100.00;101619.75;5099079;28;20660;-71
2022/10/31 05:55:33;;;;;;;25.63;11.88;;;;;;;13.92;100.00;101623.34;5102234;28;20054;-70
2022/10/31 05:58:00;;;;;;;31.23;11.75;;;;;;;13.89;100.00;101631.69;5105369;28;20512;-71
2022/10/31 06:00:28;;;;;;;26.13;12.38;;;;;;;13.89;100.00;101617.75;5088748;28;20081;-72
2022/10/31 06:03:03;;;;;;;24.08;11.30;;;;;;;13.86;100.00;101618.56;5104011;28;20047;-71
2022/10/31 06:05:30;;;;;;;32.17;12.07;;;;;;;13.81;100.00;101621.75;5092156;28;20075;-72
2022/10/31 06:07:57;;;;;;;25.63;12.40;;;;;;;13.81;100.00;101628.13;5101970;28;20047;-71
2022/10/31 06:10:25;;;;;;;32.28;15.05;;;;;;;13.79;100.00;101622.16;5103278;28;20151;-72
2022/10/31 06:12:52;;;;;;;31.33;13.70;;;;;;;13.83;100.00;101617.38;5098414;28;20093;-71
2022/10/31 06:15:20;;;;;;;34.20;16.58;;;;;;;13.88;100.00;101624.53;5098698;28;20104;-73
2022/10/31 06:18:05;;;;;;;32.10;16.58;;;;;;;13.84;100.00;101616.16;5102376;28;20149;-71
2022/10/31 06:20:32;;;;;;;38.03;18.95;;;;;;;13.86;100.00;101618.56;5097785;28;20051;-72
2022/10/31 06:22:59;;;;;;;47.60;24.35;;;;;;;13.87;100.00;101632.06;5096037;28;20051;-72
2022/10/31 06:25:26;;;;;;;39.42;21.20;;;;;;;13.89;100.00;101626.13;5108418;28;20128;-70
2022/10/31 06:27:53;;;;;;;31.42;16.73;;;;;;;13.87;100.00;101620.94;5099681;28;20470;-72
2022/10/31 06:30:20;;;;;;;28.63;13.85;;;;;;;13.88;100.00;101639.25;5088217;28;20047;-72
2022/10/31 06:32:47;;;;;;;40.63;22.30;;;;;;;13.74;100.00;101630.88;5102898;28;20039;-72
2022/10/31 06:35:13;;;;;;;37.00;20.52;;;;;;;13.72;100.00;101624.13;5103833;28;20059;-71
2022/10/31 06:37:40;;;;;;;26.85;13.57;;;;;;;13.75;100.00;101624.13;5106534;28;20066;-72
2022/10/31 06:40:11;;;;;;;30.73;13.88;;;;;;;13.80;100.00;101634.06;5099795;28;20109;-71
2022/10/31 06:42:37;;;;;;;29.67;15.25;;;;;;;13.76;100.00;101636.03;5097801;28;20108;-71
2022/10/31 06:45:04;;;;;;;28.58;12.88;;;;;;;13.78;100.00;101628.91;5098085;28;20635;-71
2022/10/31 06:47:30;;;;;;;28.73;12.40;;;;;;;13.82;100.00;101626.13;5101587;27;20047;-73
2022/10/31 06:49:57;;;;;;;31.55;12.77;;;;;;;13.77;100.00;101630.09;5106096;28;20070;-72
2022/10/31 06:52:24;;;;;;;32.83;12.68;;;;;;;13.81;100.00;101635.66;5104212;28;20519;-71
2022/10/31 06:54:50;;;;;;;29.70;13.65;;;;;;;13.85;100.00;101633.66;5092987;28;20055;-71
2022/10/31 06:57:16;;;;;;;31.33;12.98;;;;;;;13.87;100.00;101639.63;5108015;28;20048;-71
2022/10/31 06:59:43;;;;;;;29.02;13.30;;;;;;;13.89;100.00;101646.38;5100763;28;20577;-70
2022/10/31 07:02:10;;;;;;;24.88;12.77;;;;;;;13.94;100.00;101648.75;5097099;28;20057;-71
2022/10/31 07:04:37;;;;;;;27.10;13.25;;;;;;;13.96;100.00;101642.81;5095851;28;20043;-70
2022/10/31 07:07:03;;;;;;;33.75;13.95;;;;;;;13.99;100.00;101644.78;5099099;28;20511;-71
2022/10/31 07:09:30;;;;;;;37.05;15.10;;;;;;;14.01;100.00;101645.97;5098224;28;20173;-69
2022/10/31 07:11:56;;;;;;;35.83;15.07;;;;;;;14.00;100.00;101641.63;5096990;28;20089;-70
2022/10/31 07:14:23;;;;;;;30.98;14.27;;;;;;;14.01;100.00;101651.53;5106725;28;20047;-72
2022/10/31 07:16:50;;;;;;;31.23;15.23;;;;;;;14.02;100.00;101650.38;5098884;28;20055;-71
2022/10/31 07:19:17;;;;;;;32.92;13.88;;;;;;;14.02;100.00;101646.78;5092752;28;20423;-71
2022/10/31 07:21:43;;;;;;;32.95;13.23;;;;;;;14.06;100.00;101651.16;5097957;28;20043;-72
2022/10/31 07:24:10;;;;;;;26.50;12.98;;;;;;;14.09;100.00;101652.34;5097415;28;20083;-71
2022/10/31 07:26:36;;;;;;;30.58;13.00;;;;;;;14.07;100.00;101651.97;5094979;28;20044;-72
2022/10/31 07:29:03;;;;;;;30.27;13.88;;;;;;;14.13;100.00;101656.72;5087564;28;20044;-72
2022/10/31 07:31:29;;;;;;;30.00;14.00;;;;;;;14.12;100.00;101660.69;5099597;28;20051;-72
2022/10/31 07:33:56;;;;;;;26.92;12.48;;;;;;;14.12;100.00;101655.13;5100073;28;20064;-72
2022/10/31 07:36:22;;;;;;;26.58;11.98;;;;;;;14.11;100.00;101652.75;5107124;27;20059;-71
2022/10/31 07:38:49;;;;;;;34.05;14.70;;;;;;;14.19;100.00;101655.13;5095705;28;20048;-70
2022/10/31 07:41:16;;;;;;;34.67;13.20;;;;;;;14.23;100.00;101655.13;5094741;28;20514;-71
2022/10/31 07:43:42;;;;;;;26.10;12.52;;;;;;;14.22;100.00;101651.56;5097411;28;20051;-72
2022/10/31 07:46:09;;;;;;;30.13;13.90;;;;;;;14.25;100.00;101653.56;5101616;28;20051;-70
2022/10/31 07:48:35;;;;;;;28.00;13.63;;;;;;;14.27;100.00;101647.56;5103133;28;20054;-71
2022/10/31 07:51:02;;;;;;;29.15;14.32;;;;;;;14.28;100.00;101654.75;5102704;28;20042;-71
2022/10/31 07:53:28;;;;;;;27.42;14.73;;;;;;;14.28;100.00;101647.16;5100574;28;20054;-72
2022/10/31 07:55:55;;;;;;;27.50;13.93;;;;;;;14.32;100.00;101653.56;5096940;28;20563;-73
2022/10/31 07:58:21;;;;;;;28.60;14.63;;;;;;;14.38;100.00;101646.38;5106142;28;20047;-72
2022/10/31 08:00:47;;;;;;;36.40;15.00;;;;;;;14.45;100.00;101649.13;5096491;28;20101;-72
2022/10/31 08:03:17;;;;;;;31.63;15.43;;;;;;;14.51;100.00;101652.31;5103838;28;20062;-73
2022/10/31 08:05:47;;;;;;;30.13;15.45;;;;;;;14.53;100.00;101645.16;5103614;27;20044;-72
2022/10/31 08:08:14;;;;;;;32.60;14.93;;;;;;;14.61;100.00;101635.56;5092433;28;20054;-73
2022/10/31 08:10:42;;;;;;;29.45;14.65;;;;;;;14.69;100.00;101639.13;5088462;28;20043;-72
2022/10/31 08:13:11;;;;;;;30.13;15.23;;;;;;;14.75;100.00;101648.66;5094048;28;20058;-71
2022/10/31 08:15:40;;;;;;;35.97;16.80;;;;;;;14.84;100.00;101646.22;5093768;28;20052;-71
2022/10/31 08:18:23;;;;;;;30.52;16.23;;;;;;;14.91;100.00;101640.63;5114113;27;20160;-72
2022/10/31 08:20:50;;;;;;;31.92;16.67;;;;;;;14.82;100.00;101610.41;5096244;28;20109;-72
2022/10/31 08:23:16;;;;;;;34.28;15.30;;;;;;;15.03;100.00;101648.56;5100732;27;20048;-72
2022/10/31 08:25:42;;;;;;;34.17;15.55;;;;;;;15.08;100.00;101654.50;5095224;28;20055;-73
2022/10/31 08:28:11;;;;;;;37.10;17.42;;;;;;;15.16;100.00;101647.69;5093101;27;20071;-72
2022/10/31 08:30:39;;;;;;;36.90;17.15;;;;;;;15.16;100.00;101642.09;5099872;28;20050;-73
2022/10/31 08:33:09;;;;;;;31.65;15.90;;;;;;;15.26;100.00;101655.19;5100325;27;20048;-73
2022/10/31 08:35:36;;;;;;;35.40;16.45;;;;;;;15.29;100.00;101662.75;5099352;28;20043;-73
2022/10/31 08:38:03;;;;;;;36.35;18.20;;;;;;;15.36;100.00;101664.75;5101210;28;20040;-73
2022/10/31 08:40:32;;;;;;;32.08;16.92;;;;;;;15.42;100.00;101663.91;5099569;28;20048;-73
2022/10/31 08:43:04;;;;;;;36.33;17.40;;;;;;;15.48;100.00;101666.28;5098274;28;20044;-72
2022/10/31 08:45:32;;;;;;;34.80;17.60;;;;;;;15.56;100.00;101665.03;5102307;27;20054;-73
2022/10/31 08:48:01;;;;;;;30.05;16.52;;;;;;;15.62;100.00;101661.38;5100759;28;20661;-72
2022/10/31 08:50:30;;;;;;;37.15;17.88;;;;;;;15.71;100.00;101658.13;5105824;28;20146;-72
2022/10/31 08:53:17;;;;;;;40.78;19.17;;;;;;;15.86;100.00;101649.25;5098579;28;20048;-73
2022/10/31 08:55:45;;;;;;;36.53;18.20;;;;;;;15.99;100.00;101643.97;5099648;28;20182;-73
2022/10/31 08:58:15;;;;;;;38.88;18.15;;;;;;;16.13;100.00;101647.41;5097102;28;20594;-73
2022/10/31 09:00:42;;;;;;;37.20;18.75;;;;;;;16.26;100.00;101644.94;5104350;28;20047;-73
2022/10/31 09:03:13;;;;;;;36.85;18.55;;;;;;;16.40;100.00;101639.97;5106738;28;20052;-72
2022/10/31 09:05:39;;;;;;;35.15;18.48;;;;;;;16.49;100.00;101633.91;5108304;28;20141;-74
2022/10/31 09:08:07;;;;;;;41.85;19.67;;;;;;;16.58;100.00;101637.81;5099653;28;20633;-74
2022/10/31 09:10:42;;;;;;;33.65;18.20;;;;;;;16.68;100.00;101627.72;5108498;27;20108;-72
2022/10/31 09:13:18;;;;;;;41.80;19.40;;;;;;;16.75;100.00;101633.22;5104679;28;20138;-72
2022/10/31 09:15:47;;;;;;;37.85;18.33;;;;;;;16.85;100.00;101629.53;5110454;28;20856;-72
2022/10/31 09:18:15;;;;;;;34.65;17.33;;;;;;;16.96;100.00;101617.00;5116675;27;20507;-71
2022/10/31 09:20:44;;;;;;;36.28;16.52;;;;;;;17.10;100.00;101619.59;5107880;28;20051;-71
2022/10/31 09:23:12;;;;;;;36.13;19.88;;;;;;;17.25;100.00;101609.78;5108667;28;20131;-70
2022/10/31 09:25:40;;;;;;;38.58;19.95;;;;;;;17.42;100.00;101619.19;5099072;28;20048;-71
2022/10/31 09:28:15;;;;;;;41.30;20.90;;;;;;;17.57;100.00;101598.94;5099145;28;20085;-70
2022/10/31 09:30:42;;;;;;;44.05;21.92;;;;;;;17.72;100.00;101605.13;5098717;28;20051;-72
2022/10/31 09:33:12;;;;;;;36.97;19.20;;;;;;;17.90;100.00;101605.59;5096542;28;20102;-69
2022/10/31 09:35:40;;;;;;;38.33;18.85;;;;;;;18.01;100.00;101603.41;5104566;28;20158;-73
2022/10/31 09:38:10;;;;;;;39.45;19.65;;;;;;;18.09;100.00;101596.44;5098005;28;20051;-72
2022/10/31 09:40:41;;;;;;;34.47;18.02;;;;;;;18.17;100.00;101606.31;5104317;27;20052;-74
2022/10/31 09:43:38;;;;;;;34.22;18.50;;;;;;;18.27;100.00;101599.75;5093856;28;20484;-73
2022/10/31 09:46:08;;;;;;;41.72;19.73;;;;;;;18.42;100.00;101598.28;5089106;28;20048;-73
2022/10/31 09:48:47;;;;;;;35.85;17.35;;;;;;;18.55;100.00;101596.41;5097050;28;20419;-72
2022/10/31 09:51:23;;;;;;;44.97;19.60;;;;;;;18.64;100.00;101591.03;5098761;28;20730;-73
2022/10/31 09:54:09;;;;;;;;;;;;;;;18.64;100.00;101593.03;5104099;28;20601;-70
2022/10/31 09:56:36;;;;;;;;;;;;;;;18.66;100.00;101587.81;5038694;28;19924;-71
2022/10/31 09:59:10;;;;;;;40.90;18.25;;;;;;;18.65;100.00;101580.59;5074869;27;19924;-73
2022/10/31 10:01:45;;;;;;;44.65;18.27;;;;;;;18.64;100.00;101582.63;5074384;27;20525;-74
2022/10/31 10:04:34;;;;;;;38.40;17.20;;;;;;;18.65;100.00;101580.59;5082751;28;20056;-73
2022/10/31 10:07:10;;;;;;;37.47;17.33;;;;;;;18.68;100.00;101586.13;5093246;27;20120;-73
2022/10/31 10:09:36;;;;;;;40.63;18.33;;;;;;;18.69;100.00;101578.53;5076282;28;20578;-73
2022/10/31 10:12:21;;;;;;;40.38;18.42;;;;;;;18.68;100.00;101586.13;5085307;28;20153;-74
2022/10/31 10:15:15;;;;;;;43.88;18.88;;;;;;;18.67;100.00;101578.97;5092258;27;20073;-73
2022/10/31 10:17:54;;;;;;;40.80;18.08;;;;;;;18.69;100.00;101582.09;5078470;28;20500;-73
2022/10/31 10:20:44;;;;;;;40.15;17.92;;;;;;;18.71;100.00;101576.88;5078335;27;20507;-73
2022/10/31 10:23:35;;;;;;;42.65;17.80;;;;;;;18.76;100.00;101565.13;5078951;28;20172;-74
2022/10/31 10:26:17;;;;;;;38.67;19.27;;;;;;;18.82;100.00;101560.59;5069378;28;20128;-72
2022/10/31 10:28:49;;;;;;;43.88;20.25;;;;;;;18.89;100.00;101554.84;5075024;28;20527;-73
2022/10/31 10:31:28;;;;;;;43.88;20.08;;;;;;;19.03;100.00;101556.56;5083086;27;20059;-74
2022/10/31 10:34:02;;;;;;;43.45;19.30;;;;;;;19.20;100.00;101555.38;5075338;28;20050;-74
2022/10/31 10:37:16;;;;;;;44.28;18.83;;;;;;;19.43;100.00;101555.22;5077539;27;20048;-74
2022/10/31 10:39:52;;;;;;;44.95;17.75;;;;;;;19.66;100.00;101558.66;5045409;28;20049;-74
2022/10/31 10:48:40;;;;;;;44.20;21.33;;;;;;;20.27;100.00;101539.00;5074059;28;20062;-73
2022/10/31 10:51:15;;;;;;;43.45;16.23;;;;;;;20.63;100.00;101536.75;5078989;28;20528;-72
2022/10/31 10:54:18;;;;;;;39.83;19.27;;;;;;;20.92;100.00;101525.44;5081360;28;20074;-73
2022/10/31 10:56:54;;;;;;;37.70;17.25;;;;;;;21.12;100.00;101518.38;5074288;28;20059;-73
2022/10/31 10:59:22;;;;;;;42.95;17.60;;;;;;;21.07;100.00;101518.16;5074925;28;20980;-73
2022/10/31 11:01:51;;;;;;;38.65;18.45;;;;;;;20.89;100.00;101518.66;5077348;28;20047;-73
2022/10/31 11:04:33;;;;;;;44.88;17.70;;;;;;;20.77;100.00;101513.03;5059704;28;20917;-72
2022/10/31 11:07:08;;;;;;;44.67;18.20;;;;;;;20.72;100.00;101511.56;5081051;28;20843;-72
2022/10/31 11:09:36;;;;;;;40.45;19.15;;;;;;;20.60;100.00;101503.09;5068410;28;20051;-73
2022/10/31 11:12:21;;;;;;;44.45;19.60;;;;;;;20.41;100.00;101502.06;5076899;28;20059;-75
2022/10/31 11:14:51;;;;;;;37.78;18.90;;;;;;;20.32;100.00;101485.06;5081830;28;20051;-72
2022/10/31 11:17:24;;;;;;;39.58;19.20;;;;;;;20.23;100.00;101482.09;5080776;28;20052;-71
2022/10/31 11:20:11;;;;;;;37.67;17.60;;;;;;;20.15;100.00;101484.31;5076516;28;20052;-73
2022/10/31 11:22:46;;;;;;;49.35;20.60;;;;;;;20.16;100.00;101479.50;5079014;28;20055;-74
2022/10/31 11:25:19;;;;;;;40.40;17.35;;;;;;;20.09;100.00;101457.19;5083459;28;20052;-72
2022/10/31 11:28:08;;;;;;;40.63;18.20;;;;;;;20.05;100.00;101450.91;5080057;28;20051;-72